sensor_id;sensor_type;location;lat;lon;timestamp;pressure;altitude;pressure_sealevel;temperature;humidity
75867;BME280;64513;56.258;43.980;2022-12-18T00:00:21;99723.83;;;1.85;61.85
75867;BME280;64513;56.258;43.980;2022-12-18T00:02:45;99724.63;;;1.85;61.91
75867;BME280;64513;56.258;43.980;2022-12-18T00:05:09;99710.21;;;1.83;61.98
75867;BME280;64513;56.258;43.980;2022-12-18T00:07:33;99684.94;;;1.83;61.98
75867;BME280;64513;56.258;43.980;2022-12-18T00:09:58;99690.16;;;1.83;61.91
75867;BME280;64513;56.258;43.980;2022-12-18T00:12:22;99672.13;;;1.82;61.93
75867;BME280;64513;56.258;43.980;2022-12-18T00:14:46;99674.29;;;1.85;61.83
75867;BME280;64513;56.258;43.980;2022-12-18T00:17:10;99661.25;;;1.85;61.80
75867;BME280;64513;56.258;43.980;2022-12-18T00:19:34;99656.84;;;1.85;61.79
75867;BME280;64513;56.258;43.980;2022-12-18T00:21:59;99637.79;;;1.85;61.77
75867;BME280;64513;56.258;43.980;2022-12-18T00:24:23;99641.20;;;1.85;61.79
75867;BME280;64513;56.258;43.980;2022-12-18T00:26:47;99633.95;;;1.87;61.72
75867;BME280;64513;56.258;43.980;2022-12-18T00:29:13;99608.67;;;1.88;61.59
75867;BME280;64513;56.258;43.980;2022-12-18T00:31:38;99614.91;;;1.87;61.59
75867;BME280;64513;56.258;43.980;2022-12-18T00:34:03;99602.66;;;1.87;61.54
75867;BME280;64513;56.258;43.980;2022-12-18T00:36:30;99577.38;;;1.88;61.51
75867;BME280;64513;56.258;43.980;2022-12-18T00:38:56;99572.17;;;1.88;61.47
75867;BME280;64513;56.258;43.980;2022-12-18T00:41:20;99565.94;;;1.89;61.47
75867;BME280;64513;56.258;43.980;2022-12-18T00:44:05;99548.12;;;1.86;61.49
75867;BME280;64513;56.258;43.980;2022-12-18T00:46:30;99555.95;;;1.86;61.47
75867;BME280;64513;56.258;43.980;2022-12-18T00:48:54;99555.95;;;1.86;61.46
75867;BME280;64513;56.258;43.980;2022-12-18T00:51:19;99536.55;;;1.82;61.51
75867;BME280;64513;56.258;43.980;2022-12-18T00:53:43;99515.13;;;1.80;61.59
75867;BME280;64513;56.258;43.980;2022-12-18T00:56:07;99504.13;;;1.78;61.60
75867;BME280;64513;56.258;43.980;2022-12-18T00:58:31;99495.28;;;1.79;61.67
75867;BME280;64513;56.258;43.980;2022-12-18T01:00:55;99482.25;;;1.79;61.67
75867;BME280;64513;56.258;43.980;2022-12-18T01:03:20;99479.64;;;1.79;61.71
75867;BME280;64513;56.258;43.980;2022-12-18T01:05:44;99480.44;;;1.79;61.66
75867;BME280;64513;56.258;43.980;2022-12-18T01:08:08;99464.80;;;1.79;61.70
75867;BME280;64513;56.258;43.980;2022-12-18T01:10:32;99454.38;;;1.79;61.78
75867;BME280;64513;56.258;43.980;2022-12-18T01:12:56;99429.09;;;1.80;61.71
75867;BME280;64513;56.258;43.980;2022-12-18T01:15:21;99451.54;;;1.81;61.69
75867;BME280;64513;56.258;43.980;2022-12-18T01:17:45;99441.11;;;1.81;61.69
75867;BME280;64513;56.258;43.980;2022-12-18T01:20:10;99448.94;;;1.81;61.67
75867;BME280;64513;56.258;43.980;2022-12-18T01:22:35;99437.48;;;1.82;61.62
75867;BME280;64513;56.258;43.980;2022-12-18T01:24:59;99420.26;;;1.81;61.64
75867;BME280;64513;56.258;43.980;2022-12-18T01:27:25;99426.27;;;1.81;61.69
75867;BME280;64513;56.258;43.980;2022-12-18T01:29:50;99420.26;;;1.81;61.70
75867;BME280;64513;56.258;43.980;2022-12-18T01:32:14;99442.70;;;1.82;61.75
75867;BME280;64513;56.258;43.980;2022-12-18T01:34:38;99443.72;;;1.81;61.74
75867;BME280;64513;56.258;43.980;2022-12-18T01:37:36;99448.94;;;1.81;61.79
75867;BME280;64513;56.258;43.980;2022-12-18T01:39:29;99443.15;;;1.79;61.91
75867;BME280;64513;56.258;43.980;2022-12-18T01:41:53;99449.95;;;1.80;61.89
75867;BME280;64513;56.258;43.980;2022-12-18T01:48:03;99421.84;;;1.82;61.94
75867;BME280;64513;56.258;43.980;2022-12-18T01:50:47;99414.02;;;1.82;61.93
75867;BME280;64513;56.258;43.980;2022-12-18T01:53:14;99399.41;;;1.81;61.95
75867;BME280;64513;56.258;43.980;2022-12-18T01:55:42;99372.77;;;1.79;61.99
75867;BME280;64513;56.258;43.980;2022-12-18T01:58:06;99370.16;;;1.79;62.09
75867;BME280;64513;56.258;43.980;2022-12-18T02:00:30;99351.91;;;1.79;62.10
75867;BME280;64513;56.258;43.980;2022-12-18T02:02:54;99337.86;;;1.80;62.10
75867;BME280;64513;56.258;43.980;2022-12-18T02:11:13;99304.77;;;1.80;62.11
75867;BME280;64513;56.258;43.980;2022-12-18T02:19:48;99291.08;;;1.73;62.23
75867;BME280;64513;56.258;43.980;2022-12-18T02:28:21;99301.62;;;1.66;62.63
75867;BME280;64513;56.258;43.980;2022-12-18T02:30:48;99301.62;;;1.66;62.61
75867;BME280;64513;56.258;43.980;2022-12-18T02:33:15;99301.62;;;1.66;62.67
75867;BME280;64513;56.258;43.980;2022-12-18T02:35:41;99272.95;;;1.66;62.78
75867;BME280;64513;56.258;43.980;2022-12-18T02:38:06;99236.46;;;1.66;62.75
75867;BME280;64513;56.258;43.980;2022-12-18T02:40:30;99215.95;;;1.70;62.70
75867;BME280;64513;56.258;43.980;2022-12-18T02:42:55;99198.50;;;1.70;62.70
75867;BME280;64513;56.258;43.980;2022-12-18T02:45:21;99169.59;;;1.72;62.70
75867;BME280;64513;56.258;43.980;2022-12-18T02:47:47;99149.54;;;1.72;62.65
75867;BME280;64513;56.258;43.980;2022-12-18T03:19:24;98970.73;;;1.55;63.90
75867;BME280;64513;56.258;43.980;2022-12-18T03:22:24;98985.56;;;1.54;64.02
75867;BME280;64513;56.258;43.980;2022-12-18T03:24:17;98980.91;;;1.56;63.87
75867;BME280;64513;56.258;43.980;2022-12-18T03:26:44;98979.34;;;1.55;63.91
75867;BME280;64513;56.258;43.980;2022-12-18T03:34:42;99036.72;;;1.60;63.74
75867;BME280;64513;56.258;43.980;2022-12-18T03:37:08;99034.12;;;1.60;63.62
75867;BME280;64513;56.258;43.980;2022-12-18T03:39:33;99020.06;;;1.61;63.51
75867;BME280;64513;56.258;43.980;2022-12-18T03:45:06;99032.06;;;1.62;63.66
75867;BME280;64513;56.258;43.980;2022-12-18T03:56:23;98976.32;;;1.63;63.44
75867;BME280;64513;56.258;43.980;2022-12-18T03:58:49;98982.55;;;1.62;63.50
75867;BME280;64513;56.258;43.980;2022-12-18T04:01:16;98978.38;;;1.61;63.59
75867;BME280;64513;56.258;43.980;2022-12-18T04:03:42;98973.95;;;1.62;63.60
75867;BME280;64513;56.258;43.980;2022-12-18T04:06:08;98975.30;;;1.64;63.55
75867;BME280;64513;56.258;43.980;2022-12-18T04:08:34;98968.83;;;1.67;63.55
75867;BME280;64513;56.258;43.980;2022-12-18T04:11:00;98963.38;;;1.68;63.60
75867;BME280;64513;56.258;43.980;2022-12-18T04:13:44;98958.16;;;1.68;63.68
75867;BME280;64513;56.258;43.980;2022-12-18T04:16:09;98953.51;;;1.70;63.66
75867;BME280;64513;56.258;43.980;2022-12-18T04:18:33;98940.48;;;1.70;63.59
75867;BME280;64513;56.258;43.980;2022-12-18T04:20:57;98936.05;;;1.71;63.69
75867;BME280;64513;56.258;43.980;2022-12-18T04:23:21;98939.98;;;1.73;63.67
75867;BME280;64513;56.258;43.980;2022-12-18T04:25:47;98920.19;;;1.72;63.71
75867;BME280;64513;56.258;43.980;2022-12-18T04:28:11;98936.34;;;1.74;63.67
75867;BME280;64513;56.258;43.980;2022-12-18T04:30:35;98932.72;;;1.75;63.67
75867;BME280;64513;56.258;43.980;2022-12-18T04:32:59;98935.32;;;1.75;63.74
75867;BME280;64513;56.258;43.980;2022-12-18T04:35:23;98926.00;;;1.80;63.77
75867;BME280;64513;56.258;43.980;2022-12-18T04:37:48;98907.76;;;1.80;63.71
75867;BME280;64513;56.258;43.980;2022-12-18T04:40:14;98900.49;;;1.82;63.68
75867;BME280;64513;56.258;43.980;2022-12-18T04:42:39;98898.91;;;1.81;63.68
75867;BME280;64513;56.258;43.980;2022-12-18T04:45:04;98892.91;;;1.80;63.80
75867;BME280;64513;56.258;43.980;2022-12-18T04:47:28;98879.64;;;1.82;63.81
75867;BME280;64513;56.258;43.980;2022-12-18T04:49:52;98883.83;;;1.83;63.79
75867;BME280;64513;56.258;43.980;2022-12-18T04:52:16;98888.02;;;1.84;63.76
75867;BME280;64513;56.258;43.980;2022-12-18T04:54:40;98884.38;;;1.85;63.76
75867;BME280;64513;56.258;43.980;2022-12-18T04:57:04;98880.74;;;1.86;63.70
75867;BME280;64513;56.258;43.980;2022-12-18T04:59:29;98881.02;;;1.89;63.60
75867;BME280;64513;56.258;43.980;2022-12-18T05:01:53;98869.84;;;1.89;63.60
75867;BME280;64513;56.258;43.980;2022-12-18T05:04:17;98872.45;;;1.89;63.62
75867;BME280;64513;56.258;43.980;2022-12-18T05:06:41;98870.36;;;1.91;63.63
75867;BME280;64513;56.258;43.980;2022-12-18T05:09:05;98864.13;;;1.92;63.67
75867;BME280;64513;56.258;43.980;2022-12-18T05:11:29;98856.06;;;1.93;63.62
75867;BME280;64513;56.258;43.980;2022-12-18T05:13:53;98862.85;;;1.94;63.65
75867;BME280;64513;56.258;43.980;2022-12-18T05:16:18;98853.22;;;1.95;63.60
75867;BME280;64513;56.258;43.980;2022-12-18T05:18:42;98851.95;;;1.97;63.58
75867;BME280;64513;56.258;43.980;2022-12-18T05:21:06;98854.31;;;1.99;63.58
75867;BME280;64513;56.258;43.980;2022-12-18T05:23:31;98852.50;;;1.99;63.62
75867;BME280;64513;56.258;43.980;2022-12-18T05:28:41;98843.41;;;2.02;63.63
75867;BME280;64513;56.258;43.980;2022-12-18T05:31:05;98847.59;;;2.03;63.59
75867;BME280;64513;56.258;43.980;2022-12-18T05:33:32;98844.98;;;2.03;63.64
75867;BME280;64513;56.258;43.980;2022-12-18T05:36:16;98827.25;;;2.05;63.62
75867;BME280;64513;56.258;43.980;2022-12-18T05:38:40;98825.98;;;2.07;63.62
75867;BME280;64513;56.258;43.980;2022-12-18T05:41:05;98823.13;;;2.09;63.50
75867;BME280;64513;56.258;43.980;2022-12-18T05:43:30;98813.25;;;2.11;63.46
75867;BME280;64513;56.258;43.980;2022-12-18T05:45:55;98807.80;;;2.13;63.45
75867;BME280;64513;56.258;43.980;2022-12-18T05:48:19;98807.31;;;2.16;63.44
75867;BME280;64513;56.258;43.980;2022-12-18T05:50:45;98808.10;;;2.16;63.48
75867;BME280;64513;56.258;43.980;2022-12-18T05:53:09;98811.25;;;2.18;63.46
75867;BME280;64513;56.258;43.980;2022-12-18T05:55:53;98799.80;;;2.19;63.44
75867;BME280;64513;56.258;43.980;2022-12-18T05:58:18;98821.17;;;2.21;63.40
75867;BME280;64513;56.258;43.980;2022-12-18T06:00:44;98813.66;;;2.25;63.30
75867;BME280;64513;56.258;43.980;2022-12-18T06:03:11;98814.20;;;2.27;63.32
75867;BME280;64513;56.258;43.980;2022-12-18T06:05:55;98816.56;;;2.28;63.34
75867;BME280;64513;56.258;43.980;2022-12-18T06:08:19;98817.12;;;2.30;63.36
75867;BME280;64513;56.258;43.980;2022-12-18T06:10:49;98800.44;;;2.31;63.34
75867;BME280;64513;56.258;43.980;2022-12-18T06:13:13;98812.45;;;2.32;63.31
75867;BME280;64513;56.258;43.980;2022-12-18T06:15:37;98801.53;;;2.35;63.35
75867;BME280;64513;56.258;43.980;2022-12-18T06:18:01;98785.88;;;2.35;63.35
75867;BME280;64513;56.258;43.980;2022-12-18T06:20:25;98790.57;;;2.38;63.33
75867;BME280;64513;56.258;43.980;2022-12-18T06:22:49;98798.95;;;2.40;63.30
75867;BME280;64513;56.258;43.980;2022-12-18T06:25:14;98799.48;;;2.42;63.33
75867;BME280;64513;56.258;43.980;2022-12-18T06:27:38;98793.00;;;2.45;63.35
75867;BME280;64513;56.258;43.980;2022-12-18T06:30:03;98789.91;;;2.48;63.31
75867;BME280;64513;56.258;43.980;2022-12-18T06:32:28;98792.27;;;2.50;63.31
75867;BME280;64513;56.258;43.980;2022-12-18T06:34:52;98783.41;;;2.51;63.35
75867;BME280;64513;56.258;43.980;2022-12-18T06:37:17;98769.33;;;2.52;63.35
75867;BME280;64513;56.258;43.980;2022-12-18T06:39:41;98769.05;;;2.53;63.37
75867;BME280;64513;56.258;43.980;2022-12-18T06:42:05;98766.74;;;2.57;63.28
75867;BME280;64513;56.258;43.980;2022-12-18T06:44:29;98771.47;;;2.60;63.25
75867;BME280;64513;56.258;43.980;2022-12-18T06:46:54;98764.97;;;2.62;63.23
75867;BME280;64513;56.258;43.980;2022-12-18T06:49:19;98755.32;;;2.63;63.22
75867;BME280;64513;56.258;43.980;2022-12-18T06:51:43;98753.25;;;2.65;63.17
75867;BME280;64513;56.258;43.980;2022-12-18T06:54:07;98748.30;;;2.68;63.10
75867;BME280;64513;56.258;43.980;2022-12-18T06:56:31;98736.58;;;2.71;63.06
75867;BME280;64513;56.258;43.980;2022-12-18T06:58:55;98736.88;;;2.74;62.97
75867;BME280;64513;56.258;43.980;2022-12-18T07:01:19;98747.31;;;2.74;62.96
75867;BME280;64513;56.258;43.980;2022-12-18T07:03:43;98732.73;;;2.78;62.90
75867;BME280;64513;56.258;43.980;2022-12-18T07:08:54;98723.37;;;2.83;62.85
75867;BME280;64513;56.258;43.980;2022-12-18T07:11:18;98725.19;;;2.82;62.84
75867;BME280;64513;56.258;43.980;2022-12-18T07:13:43;98715.78;;;2.81;62.87
75867;BME280;64513;56.258;43.980;2022-12-18T07:16:27;98721.55;;;2.83;62.88
75867;BME280;64513;56.258;43.980;2022-12-18T07:18:52;98695.95;;;2.85;62.84
75867;BME280;64513;56.258;43.980;2022-12-18T07:21:18;98719.20;;;2.87;62.74
75867;BME280;64513;56.258;43.980;2022-12-18T07:23:43;98725.20;;;2.87;62.75
75867;BME280;64513;56.258;43.980;2022-12-18T07:26:10;98718.95;;;2.88;62.75
75867;BME280;64513;56.258;43.980;2022-12-18T07:28:36;98704.61;;;2.91;62.66
75867;BME280;64513;56.258;43.980;2022-12-18T07:31:21;98697.56;;;2.91;62.60
75867;BME280;64513;56.258;43.980;2022-12-18T07:33:46;98687.66;;;2.93;62.56
75867;BME280;64513;56.258;43.980;2022-12-18T07:36:11;98692.88;;;2.93;62.54
75867;BME280;64513;56.258;43.980;2022-12-18T07:38:35;98696.28;;;2.94;62.57
75867;BME280;64513;56.258;43.980;2022-12-18T07:41:20;98696.81;;;2.96;62.55
75867;BME280;64513;56.258;43.980;2022-12-18T07:43:44;98682.97;;;2.95;62.52
75867;BME280;64513;56.258;43.980;2022-12-18T07:46:09;98687.41;;;2.95;62.50
75867;BME280;64513;56.258;43.980;2022-12-18T07:48:36;98683.51;;;2.97;62.42
75867;BME280;64513;56.258;43.980;2022-12-18T07:51:02;98685.09;;;2.98;62.34
75867;BME280;64513;56.258;43.980;2022-12-18T07:53:26;98681.41;;;2.99;62.28
75867;BME280;64513;56.258;43.980;2022-12-18T07:58:37;98679.33;;;3.01;62.26
75867;BME280;64513;56.258;43.980;2022-12-18T08:01:21;98666.81;;;3.03;62.13
75867;BME280;64513;56.258;43.980;2022-12-18T08:03:45;98652.72;;;3.04;62.06
75867;BME280;64513;56.258;43.980;2022-12-18T08:06:10;98667.09;;;3.07;62.00
75867;BME280;64513;56.258;43.980;2022-12-18T08:08:34;98663.95;;;3.05;62.07
75867;BME280;64513;56.258;43.980;2022-12-18T08:10:59;98670.75;;;3.06;62.01
75867;BME280;64513;56.258;43.980;2022-12-18T08:13:24;98667.88;;;3.07;62.08
75867;BME280;64513;56.258;43.980;2022-12-18T08:16:08;98662.66;;;3.07;62.08
75867;BME280;64513;56.258;43.980;2022-12-18T08:18:35;98657.97;;;3.09;62.07
75867;BME280;64513;56.258;43.980;2022-12-18T08:21:22;98657.44;;;3.07;62.08
75867;BME280;64513;56.258;43.980;2022-12-18T08:23:46;98664.23;;;3.08;62.07
75867;BME280;64513;56.258;43.980;2022-12-18T08:26:11;98663.45;;;3.08;62.03
75867;BME280;64513;56.258;43.980;2022-12-18T08:28:35;98664.23;;;3.08;62.05
75867;BME280;64513;56.258;43.980;2022-12-18T08:31:00;98663.45;;;3.08;62.04
75867;BME280;64513;56.258;43.980;2022-12-18T08:33:24;98673.89;;;3.08;62.08
75867;BME280;64513;56.258;43.980;2022-12-18T08:35:49;98669.45;;;3.08;62.13
75867;BME280;64513;56.258;43.980;2022-12-18T08:38:13;98677.83;;;3.10;62.05
75867;BME280;64513;56.258;43.980;2022-12-18T08:40:37;98689.85;;;3.11;62.01
75867;BME280;64513;56.258;43.980;2022-12-18T08:43:01;98686.20;;;3.12;62.05
75867;BME280;64513;56.258;43.980;2022-12-18T08:45:45;98689.35;;;3.14;62.03
75867;BME280;64513;56.258;43.980;2022-12-18T08:48:09;98684.63;;;3.16;61.98
75867;BME280;64513;56.258;43.980;2022-12-18T08:50:34;98680.73;;;3.19;62.00
75867;BME280;64513;56.258;43.980;2022-12-18T08:52:58;98684.66;;;3.22;61.96
75867;BME280;64513;56.258;43.980;2022-12-18T08:55:22;98687.81;;;3.24;61.88
75867;BME280;64513;56.258;43.980;2022-12-18T08:57:48;98685.73;;;3.26;61.81
75867;BME280;64513;56.258;43.980;2022-12-18T09:00:13;98688.89;;;3.28;61.84
75867;BME280;64513;56.258;43.980;2022-12-18T09:02:37;98692.03;;;3.30;61.82
75867;BME280;64513;56.258;43.980;2022-12-18T09:05:02;98694.11;;;3.33;61.71
75867;BME280;64513;56.258;43.980;2022-12-18T09:07:26;98691.00;;;3.36;61.70
75867;BME280;64513;56.258;43.980;2022-12-18T09:09:50;98699.38;;;3.38;61.57
75867;BME280;64513;56.258;43.980;2022-12-18T09:12:14;98693.11;;;3.39;61.42
75867;BME280;64513;56.258;43.980;2022-12-18T09:14:38;98693.64;;;3.41;61.41
75867;BME280;64513;56.258;43.980;2022-12-18T09:17:03;98695.22;;;3.42;61.32
75867;BME280;64513;56.258;43.980;2022-12-18T09:19:27;98695.50;;;3.45;61.08
75867;BME280;64513;56.258;43.980;2022-12-18T09:21:51;98686.59;;;3.46;61.09
75867;BME280;64513;56.258;43.980;2022-12-18T09:24:16;98698.90;;;3.46;60.98
75867;BME280;64513;56.258;43.980;2022-12-18T09:26:40;98698.11;;;3.45;61.05
75867;BME280;64513;56.258;43.980;2022-12-18T09:29:05;98693.92;;;3.44;61.02
75867;BME280;64513;56.258;43.980;2022-12-18T09:31:29;98687.38;;;3.47;60.90
75867;BME280;64513;56.258;43.980;2022-12-18T09:33:55;98694.17;;;3.48;60.76
75867;BME280;64513;56.258;43.980;2022-12-18T09:36:19;98694.96;;;3.48;60.67
75867;BME280;64513;56.258;43.980;2022-12-18T09:38:44;98687.66;;;3.50;60.63
75867;BME280;64513;56.258;43.980;2022-12-18T09:55:53;98692.60;;;3.47;60.57
75867;BME280;64513;56.258;43.980;2022-12-18T10:01:26;98694.96;;;3.48;60.64
75867;BME280;64513;56.258;43.980;2022-12-18T10:03:51;98698.36;;;3.49;60.46
75867;BME280;64513;56.258;43.980;2022-12-18T10:15:33;98697.35;;;3.55;60.23
75867;BME280;64513;56.258;43.980;2022-12-18T10:21:55;98700.25;;;3.59;59.87
75867;BME280;64513;56.258;43.980;2022-12-18T10:26:50;98717.22;;;3.56;60.04
75867;BME280;64513;56.258;43.980;2022-12-18T10:29:17;98725.06;;;3.56;60.03
75867;BME280;64513;56.258;43.980;2022-12-18T10:31:41;98729.25;;;3.57;59.88
75867;BME280;64513;56.258;43.980;2022-12-18T10:36:50;98735.02;;;3.59;59.71
75867;BME280;64513;56.258;43.980;2022-12-18T10:42:21;98746.01;;;3.61;59.87
75867;BME280;64513;56.258;43.980;2022-12-18T10:44:45;98736.05;;;3.58;59.69
75867;BME280;64513;56.258;43.980;2022-12-18T10:49:55;98763.20;;;5.16;74.80
75867;BME280;64513;56.258;43.980;2022-12-18T10:52:40;98759.95;;;5.54;70.19
75867;BME280;64513;56.258;43.980;2022-12-18T10:55:05;98763.34;;;5.60;70.23
75867;BME280;64513;56.258;43.980;2022-12-18T10:57:32;98765.45;;;5.53;68.71
75867;BME280;64513;56.258;43.980;2022-12-18T10:59:59;98761.56;;;5.40;68.34
75867;BME280;64513;56.258;43.980;2022-12-18T11:02:43;98762.65;;;5.29;68.83
75867;BME280;64513;56.258;43.980;2022-12-18T11:08:20;98756.65;;;5.13;67.66
75867;BME280;64513;56.258;43.980;2022-12-18T11:10:39;98753.53;;;5.01;67.38
75867;BME280;64513;56.258;43.980;2022-12-18T11:13:24;98755.09;;;4.92;66.10
75867;BME280;64513;56.258;43.980;2022-12-18T11:15:50;98754.06;;;4.83;66.66
75867;BME280;64513;56.258;43.980;2022-12-18T11:18:34;98777.62;;;4.73;65.98
75867;BME280;64513;56.258;43.980;2022-12-18T11:21:19;98772.92;;;4.65;66.39
75867;BME280;64513;56.258;43.980;2022-12-18T11:24:03;98773.42;;;4.56;66.23
75867;BME280;64513;56.258;43.980;2022-12-18T11:26:48;98782.59;;;4.49;65.75
75867;BME280;64513;56.258;43.980;2022-12-18T11:32:38;98783.38;;;4.39;66.04
75867;BME280;64513;56.258;43.980;2022-12-18T11:37:53;98805.84;;;4.30;65.79
75867;BME280;64513;56.258;43.980;2022-12-18T11:48:58;98808.93;;;4.12;65.86
75867;BME280;64513;56.258;43.980;2022-12-18T12:06:10;98848.58;;;3.83;65.38
75867;BME280;64513;56.258;43.980;2022-12-18T12:18:23;98884.52;;;3.56;65.72
75867;BME280;64513;56.258;43.980;2022-12-18T12:20:39;98892.31;;;3.51;65.57
75867;BME280;64513;56.258;43.980;2022-12-18T12:23:53;98894.91;;;3.46;65.77
75867;BME280;64513;56.258;43.980;2022-12-18T12:43:55;98932.30;;;3.20;65.90
75867;BME280;64513;56.258;43.980;2022-12-18T12:46:21;98953.69;;;3.16;66.20
75867;BME280;64513;56.258;43.980;2022-12-18T12:49:09;98955.27;;;3.17;66.35
75867;BME280;64513;56.258;43.980;2022-12-18T12:51:35;98955.27;;;3.17;66.36
75867;BME280;64513;56.258;43.980;2022-12-18T12:54:02;98969.36;;;3.16;65.76
75867;BME280;64513;56.258;43.980;2022-12-18T13:08:09;98989.20;;;3.12;65.89
75867;BME280;64513;56.258;43.980;2022-12-18T13:10:55;98993.88;;;3.10;65.91
75867;BME280;64513;56.258;43.980;2022-12-18T13:13:59;99002.20;;;3.07;65.52
75867;BME280;64513;56.258;43.980;2022-12-18T13:16:25;99015.98;;;3.03;65.77
75867;BME280;64513;56.258;43.980;2022-12-18T13:18:52;99011.52;;;2.98;65.13
75867;BME280;64513;56.258;43.980;2022-12-18T13:21:21;99025.06;;;2.95;65.33
75867;BME280;64513;56.258;43.980;2022-12-18T13:23:46;99033.14;;;2.94;65.38
75867;BME280;64513;56.258;43.980;2022-12-18T13:26:30;99039.39;;;2.93;64.75
75867;BME280;64513;56.258;43.980;2022-12-18T13:28:57;99039.63;;;2.91;65.39
75867;BME280;64513;56.258;43.980;2022-12-18T13:34:29;99038.53;;;2.87;65.04
75867;BME280;64513;56.258;43.980;2022-12-18T13:36:56;99030.14;;;2.85;65.41
75867;BME280;64513;56.258;43.980;2022-12-18T13:39:23;99042.69;;;2.83;65.68
75867;BME280;64513;56.258;43.980;2022-12-18T13:41:50;99043.75;;;2.87;66.89
75867;BME280;64513;56.258;43.980;2022-12-18T13:44:36;99053.16;;;2.88;67.00
75867;BME280;64513;56.258;43.980;2022-12-18T13:47:04;99057.36;;;2.89;66.83
75867;BME280;64513;56.258;43.980;2022-12-18T13:49:48;99058.94;;;2.90;66.46
75867;BME280;64513;56.258;43.980;2022-12-18T13:53:03;99067.80;;;2.89;65.88
75867;BME280;64513;56.258;43.980;2022-12-18T13:55:00;99076.66;;;2.88;65.84
75867;BME280;64513;56.258;43.980;2022-12-18T13:57:46;99082.37;;;2.85;65.25
75867;BME280;64513;56.258;43.980;2022-12-18T14:00:30;99083.67;;;2.83;65.32
75867;BME280;64513;56.258;43.980;2022-12-18T14:02:56;99090.16;;;2.80;65.63
75867;BME280;64513;56.258;43.980;2022-12-18T14:05:41;99086.44;;;2.76;65.37
75867;BME280;64513;56.258;43.980;2022-12-18T14:08:33;99102.34;;;2.74;65.47
75867;BME280;64513;56.258;43.980;2022-12-18T14:10:53;99105.19;;;2.73;64.91
75867;BME280;64513;56.258;43.980;2022-12-18T14:13:40;99107.48;;;2.69;64.56
75867;BME280;64513;56.258;43.980;2022-12-18T14:16:06;99109.02;;;2.65;64.54
75867;BME280;64513;56.258;43.980;2022-12-18T14:21:34;99120.73;;;2.63;65.22
75867;BME280;64513;56.258;43.980;2022-12-18T14:24:20;99133.22;;;2.61;65.27
75867;BME280;64513;56.258;43.980;2022-12-18T14:26:45;99132.67;;;2.59;65.29
75867;BME280;64513;56.258;43.980;2022-12-18T14:29:29;99142.55;;;2.57;64.84
75867;BME280;64513;56.258;43.980;2022-12-18T14:32:15;99144.61;;;2.55;64.41
75867;BME280;64513;56.258;43.980;2022-12-18T14:34:39;99152.14;;;2.51;64.82
75867;BME280;64513;56.258;43.980;2022-12-18T14:37:04;99162.81;;;2.50;64.87
75867;BME280;64513;56.258;43.980;2022-12-18T14:39:28;99153.96;;;2.51;64.63
75867;BME280;64513;56.258;43.980;2022-12-18T14:41:53;99152.38;;;2.50;64.48
75867;BME280;64513;56.258;43.980;2022-12-18T14:44:17;99150.80;;;2.49;64.76
75867;BME280;64513;56.258;43.980;2022-12-18T14:46:44;99153.17;;;2.50;64.94
75867;BME280;64513;56.258;43.980;2022-12-18T14:49:30;99158.16;;;2.52;65.32
75867;BME280;64513;56.258;43.980;2022-12-18T14:52:27;99168.59;;;2.52;65.01
75867;BME280;64513;56.258;43.980;2022-12-18T14:54:23;99171.20;;;2.52;64.93
75867;BME280;64513;56.258;43.980;2022-12-18T14:56:51;99177.45;;;2.51;64.46
75867;BME280;64513;56.258;43.980;2022-12-18T15:04:47;99184.16;;;2.46;64.79
75867;BME280;64513;56.258;43.980;2022-12-18T15:13:08;99196.56;;;2.39;64.87
75867;BME280;64513;56.258;43.980;2022-12-18T15:15:53;99203.30;;;2.35;64.94
75867;BME280;64513;56.258;43.980;2022-12-18T15:18:21;99205.12;;;2.35;64.80
75867;BME280;64513;56.258;43.980;2022-12-18T15:23:51;99210.57;;;2.33;64.41
75867;BME280;64513;56.258;43.980;2022-12-18T15:26:18;99220.45;;;2.31;64.23
75867;BME280;64513;56.258;43.980;2022-12-18T15:29:03;99221.94;;;2.27;63.94
75867;BME280;64513;56.258;43.980;2022-12-18T15:34:32;99213.55;;;2.25;64.40
75867;BME280;64513;56.258;43.980;2022-12-18T15:36:56;99216.39;;;2.24;64.34
75867;BME280;64513;56.258;43.980;2022-12-18T15:39:20;99217.64;;;2.21;64.44
75867;BME280;64513;56.258;43.980;2022-12-18T15:41:44;99216.09;;;2.20;64.49
75867;BME280;64513;56.258;43.980;2022-12-18T15:44:28;99209.29;;;2.19;64.31
75867;BME280;64513;56.258;43.980;2022-12-18T15:46:53;99206.13;;;2.17;63.87
75867;BME280;64513;56.258;43.980;2022-12-18T15:49:17;99212.03;;;2.13;63.96
75867;BME280;64513;56.258;43.980;2022-12-18T15:51:42;99225.86;;;2.13;63.68
75867;BME280;64513;56.258;43.980;2022-12-18T15:54:09;99217.48;;;2.11;63.95
75867;BME280;64513;56.258;43.980;2022-12-18T15:56:33;99227.91;;;2.11;63.78
75867;BME280;64513;56.258;43.980;2022-12-18T15:59:37;99236.75;;;2.10;63.91
75867;BME280;64513;56.258;43.980;2022-12-18T16:02:01;99236.75;;;2.10;64.07
75867;BME280;64513;56.258;43.980;2022-12-18T16:04:26;99242.77;;;2.10;64.38
75867;BME280;64513;56.258;43.980;2022-12-18T16:06:51;99241.97;;;2.10;64.20
75867;BME280;64513;56.258;43.980;2022-12-18T16:09:15;99238.58;;;2.09;64.38
75867;BME280;64513;56.258;43.980;2022-12-18T16:11:41;99244.81;;;2.08;64.04
75867;BME280;64513;56.258;43.980;2022-12-18T16:14:29;99245.61;;;2.09;64.19
75867;BME280;64513;56.258;43.980;2022-12-18T16:16:57;99252.41;;;2.10;64.65
75867;BME280;64513;56.258;43.980;2022-12-18T16:19:21;99262.84;;;2.10;64.20
75867;BME280;64513;56.258;43.980;2022-12-18T16:21:46;99258.64;;;2.09;64.86
75867;BME280;64513;56.258;43.980;2022-12-18T16:24:32;99273.27;;;2.10;64.57
75867;BME280;64513;56.258;43.980;2022-12-18T16:26:59;99264.42;;;2.11;64.50
75867;BME280;64513;56.258;43.980;2022-12-18T16:29:24;99281.89;;;2.10;64.25
75867;BME280;64513;56.258;43.980;2022-12-18T16:32:24;99281.89;;;2.10;64.45
75867;BME280;64513;56.258;43.980;2022-12-18T16:37:02;99292.32;;;2.10;64.26
75867;BME280;64513;56.258;43.980;2022-12-18T16:39:27;99290.50;;;2.11;64.28